Terminal Aerodrome Forecast
Issued by NWS

Home | Current Version | Previous Version | Text Only | Print | Product List | Glossary On
Versions: 1 2 3 4 5 6 7 8 9 10 11 12 13
000
FTUS45 KTWC 160500
TAFOLS
TAF
KOLS 160520Z 1606/1706 VRB04KT P6SM FEW250
     FM161900 26014G20KT P6SM FEW250
     FM170300 VRB04KT P6SM FEW250=

USA.gov is the U.S. government's official web portal to all federal, state and local government web resources and services.